罗盘
风向 的 溫哥華國際機場 8L/26R
风: 2 kt, 1 beaufort


2 kt
改变
0 1.000 2.000 3.000 4.000 5.000
没有云
METAR CYCD 170400Z VRB02KT 25SM SKC 22/14 A3001 RMK LAST STFD OBS/NEXT 171300Z SLP166 DENSITY ALT 800FT

METAR 溫哥華國際機場 - CYVR/YVR

溫哥華國際機場是Vancouver,加拿大中的大型机场。 该机场有3条跑道: 8L/26R, 8R/26L 和 13/31. 该领域的国际民航组织标志是CYVR 它的国际航空运输协会代码是YVR.

这份报告是针对2022年8月16日 9:00 下午, 当地时间在Nanaimo Airport进行的。

机场观察

可变方向的风很小或没有风。

可见度为25 mi。

有没有云。 没有观察到天花板。

温度和风寒是72 °F。 露点为57 °F,相对湿度为61%。 海平面上的气压为30,01 inHg (QNH)。

白天

今天,太阳从6:08 上午升起,在8:25 下午降落。 这适用于溫哥華國際機場,世界夏令时可能有所不同。 当地时间与世界标准时间之间的时差为-7 小时。 夏令时目前正在进行中。

公司介绍

我们没有关于这个机场的公司信息。

体会

到Vliegles.nl去找飞行课程,跳伞和其他飞行体验。 浏览页面,了解溫哥華國際機場附近所有可用的活动。 你也可以使用搜索功能来寻找你所在地附近的特定飞行课程、跳伞或其他飞行体验。

跑道

Id 标题 侧风 逆风 侧风 %
8L/26R 100°-280° 2 kt 98 %
8R/26L 100°-280° 2 kt 98 %
13/31 142°-322° 1 kt 2 kt 62 %

逆风成分最大的方向会被突出显示,并用于横风计算。 这并不一定意味着这个方向在使用。

乌云

- SKC 没有云

温度 & 天气

温度 72 °F
露点 57 °F
相对湿度 61%
Kp-index 1  

评论

SLP166海平面压力为30,02 inHg (30,02 inHg)
LAST STFD OBS/NEXT 171300Z DENSITY ALT 800FT

白天

日出
6:11 上午 (4h 43m)
中午
1:19 下午
日落
8:27 下午

小工具

你想在你的网站上有一个关于溫哥華國際機場的当前航空天气(METAR)的小部件吗?

</> 显示HTML代码

我们和第三方通过cookies跟踪您在我们网站上的上网行为。如果您继续,我们认为您同意我们的cookie政策。 了解更多